Opari — 9HA3535 — position and weather

sailwx.info

Track history (hours):
 
Tides and Currents Weather Stations Pressure Air Temp Water Temp Dewpoint Dewpoint Depression Visibility Wind Speed Wind Dir Waves Ship Positions

Opari

Last reported at 2017-Sep-24 08:30 UTC. Time now 2017-Sep-24 08:41 UTC.
Position N 37°25' E 025°20'.

Length 41 m; draft 3 m.

Type: Pleasure craft. MMSI: 229709000.

Date/timePositionNaut miles runAvg speedWind from/ knotsBaromVisibWave heightAir tempDewpointWater temp
2017-Sep-24 08:30N 37°25' E 025°20'0 0.0
2017-Sep-24 08:00N 37°25' E 025°20'0 0.0
2017-Sep-24 07:30N 37°25' E 025°20'0 0.0
2017-Sep-24 07:00N 37°25' E 025°20'0 0.0
2017-Sep-24 06:30N 37°25' E 025°20'0 0.0
2017-Sep-24 06:00N 37°25' E 025°20'0 0.0
2017-Sep-24 05:30N 37°25' E 025°20'0 0.0
2017-Sep-24 05:00N 37°25' E 025°20'3 5.6
2017-Sep-24 04:30N 37°23' E 025°18'613.0
2017-Sep-24 04:00N 37°21' E 025°10'713.8
2017-Sep-24 03:30N 37°23' E 025°02'713.9
2017-Sep-24 03:01N 37°21' E 024°53'713.6
2017-Sep-24 02:30N 37°23' E 024°45'4613.5
2017-Sep-23 23:07N 37°41' E 023°51'213.5
2017-Sep-23 22:59N 37°42' E 023°50'713.5
2017-Sep-23 22:30N 37°46' E 023°44'713.8
2017-Sep-23 22:00N 37°53' E 023°41'  
Track history (hours):
 
Tides and Currents Weather Stations Pressure Air Temp Water Temp Dewpoint Dewpoint Depression Visibility Wind Speed Wind Dir Waves Ship Positions

Opari

Last reported at 2017-Sep-24 08:30 UTC. Time now 2017-Sep-24 08:41 UTC.
Position N 37°25' E 025°20'.

Length 41 m; draft 3 m.

Type: Pleasure craft. MMSI: 229709000.

Date/timePositionNaut miles runAvg speedWind from/ knotsBaromVisibWave heightAir tempDewpointWater temp
2017-Sep-24 08:30N 37°25' E 025°20'0 0.0
2017-Sep-24 08:00N 37°25' E 025°20'0 0.0
2017-Sep-24 07:30N 37°25' E 025°20'0 0.0
2017-Sep-24 07:00N 37°25' E 025°20'0 0.0
2017-Sep-24 06:30N 37°25' E 025°20'0 0.0
2017-Sep-24 06:00N 37°25' E 025°20'0 0.0
2017-Sep-24 05:30N 37°25' E 025°20'0 0.0
2017-Sep-24 05:00N 37°25' E 025°20'3 5.6
2017-Sep-24 04:30N 37°23' E 025°18'613.0
2017-Sep-24 04:00N 37°21' E 025°10'713.8
2017-Sep-24 03:30N 37°23' E 025°02'713.9
2017-Sep-24 03:01N 37°21' E 024°53'713.6
2017-Sep-24 02:30N 37°23' E 024°45'4613.5
2017-Sep-23 23:07N 37°41' E 023°51'213.5
2017-Sep-23 22:59N 37°42' E 023°50'713.5
2017-Sep-23 22:30N 37°46' E 023°44'713.8
2017-Sep-23 22:00N 37°53' E 023°41'  

Dump ship's entire track history